createdAt,value
2018-11-06T00:02:21.106Z,74.30
2018-11-06T00:04:54.839Z,74.30
2018-11-06T00:07:23.012Z,74.50
2018-11-06T00:09:51.186Z,74.40
2018-11-06T00:12:19.357Z,74.20
2018-11-06T00:14:47.559Z,74.20
2018-11-06T00:17:15.730Z,74.40
2018-11-06T00:19:43.971Z,74.60
2018-11-06T00:22:12.124Z,74.60
2018-11-06T00:24:40.331Z,74.40
2018-11-06T00:27:08.621Z,74.40
2018-11-06T00:29:36.911Z,74.40
2018-11-06T00:32:05.108Z,74.40
2018-11-06T00:34:33.276Z,74.20
2018-11-06T00:37:01.466Z,74.20
2018-11-06T00:39:29.641Z,74.10
2018-11-06T00:41:57.962Z,74.80
2018-11-06T00:44:26.131Z,74.00
2018-11-06T00:46:55.155Z,74.10
2018-11-06T00:49:23.373Z,74.40
2018-11-06T00:51:51.586Z,74.50
2018-11-06T00:54:19.761Z,74.50
2018-11-06T00:56:47.963Z,74.50
2018-11-06T00:59:16.162Z,74.50
2018-11-06T01:01:44.334Z,74.60
2018-11-06T01:04:13.894Z,74.70
2018-11-06T01:06:42.198Z,74.90
2018-11-06T01:09:11.922Z,75.00
2018-11-06T01:11:40.907Z,74.70
2018-11-06T01:14:09.397Z,75.20
2018-11-06T01:16:37.766Z,75.30
2018-11-06T01:19:06.563Z,75.20
2018-11-06T01:21:34.895Z,75.30
2018-11-06T01:24:03.178Z,75.20
2018-11-06T01:26:31.593Z,75.30
2018-11-06T01:28:59.774Z,75.30
2018-11-06T01:31:27.982Z,75.50
2018-11-06T01:33:56.160Z,75.40
2018-11-06T01:36:24.377Z,75.70
2018-11-06T01:38:52.550Z,75.70
2018-11-06T01:41:20.745Z,75.70
2018-11-06T01:43:49.022Z,75.80
2018-11-06T01:46:17.303Z,75.80
2018-11-06T01:48:45.485Z,76.60
2018-11-06T01:51:13.673Z,75.90
2018-11-06T01:53:42.026Z,75.70
2018-11-06T01:56:10.210Z,75.80
2018-11-06T01:58:38.374Z,75.80
2018-11-06T02:01:06.551Z,75.80
2018-11-06T02:03:34.745Z,75.70
2018-11-06T02:06:02.945Z,75.40
2018-11-06T02:08:31.118Z,75.40
2018-11-06T02:10:59.306Z,75.50
2018-11-06T02:13:27.514Z,75.20
2018-11-06T02:15:55.725Z,75.10
2018-11-06T02:18:23.970Z,75.10
2018-11-06T02:20:52.148Z,74.90
2018-11-06T02:23:20.340Z,74.80
2018-11-06T02:25:48.517Z,74.60
2018-11-06T02:28:16.706Z,74.50
2018-11-06T02:30:44.884Z,74.40
2018-11-06T02:33:13.081Z,74.50
2018-11-06T02:35:41.266Z,74.50
2018-11-06T02:38:09.466Z,74.30
2018-11-06T02:40:37.634Z,74.40
2018-11-06T02:43:05.807Z,74.20
2018-11-06T02:45:33.995Z,74.20
2018-11-06T02:48:02.174Z,74.20
2018-11-06T02:50:30.368Z,74.10
2018-11-06T02:52:58.602Z,73.90
2018-11-06T02:55:26.775Z,73.90
2018-11-06T02:57:54.959Z,73.90
2018-11-06T03:00:23.133Z,73.80
2018-11-06T03:02:51.334Z,73.80
2018-11-06T03:05:19.509Z,73.80
2018-11-06T03:07:47.768Z,73.60
2018-11-06T03:10:16.011Z,73.60
2018-11-06T03:12:44.798Z,73.60
2018-11-06T03:15:14.010Z,73.70
2018-11-06T03:17:42.438Z,73.70
2018-11-06T03:20:11.373Z,73.40
2018-11-06T03:22:39.954Z,73.20
2018-11-06T03:25:08.223Z,73.30
2018-11-06T03:27:36.395Z,73.40
2018-11-06T03:30:06.110Z,73.20
2018-11-06T03:32:34.302Z,73.20
2018-11-06T03:35:02.484Z,73.10
2018-11-06T03:37:30.674Z,73.10
2018-11-06T03:39:58.859Z,73.20
2018-11-06T03:42:27.053Z,73.20
2018-11-06T03:44:55.226Z,73.30
2018-11-06T03:47:23.455Z,73.30
2018-11-06T03:49:51.641Z,73.40
2018-11-06T03:52:19.828Z,73.30
2018-11-06T03:54:48.007Z,73.50
2018-11-06T03:57:16.206Z,73.80
2018-11-06T03:59:44.519Z,73.90
2018-11-06T04:02:12.824Z,73.80
2018-11-06T04:04:41.039Z,74.00
2018-11-06T04:07:09.266Z,74.10
2018-11-06T04:09:37.449Z,74.30
2018-11-06T04:12:05.751Z,74.30
2018-11-06T04:14:33.950Z,74.30
2018-11-06T04:17:02.127Z,74.40
2018-11-06T04:19:30.319Z,74.40
2018-11-06T04:21:58.490Z,74.20
2018-11-06T04:24:26.699Z,74.10
2018-11-06T04:26:54.873Z,74.20
2018-11-06T04:29:23.073Z,74.20
2018-11-06T04:31:51.338Z,74.20
2018-11-06T04:34:19.536Z,74.20
2018-11-06T04:36:47.738Z,74.40
2018-11-06T04:39:15.978Z,74.50
2018-11-06T04:41:44.272Z,76.00
2018-11-06T04:44:12.443Z,75.50
2018-11-06T04:46:40.627Z,75.10
2018-11-06T04:49:08.838Z,74.80
2018-11-06T04:51:37.029Z,74.80
2018-11-06T04:54:05.231Z,74.50
2018-11-06T04:56:33.437Z,74.60
2018-11-06T04:59:01.618Z,74.80
2018-11-06T05:01:29.822Z,74.60
2018-11-06T05:03:58.093Z,74.60
2018-11-06T05:06:26.287Z,75.00
2018-11-06T05:08:54.467Z,75.00
2018-11-06T05:11:22.659Z,74.80
2018-11-06T05:13:50.868Z,74.80
2018-11-06T05:16:19.059Z,74.20
2018-11-06T05:18:47.235Z,74.70
2018-11-06T05:21:15.421Z,74.50
2018-11-06T05:23:43.617Z,74.40
2018-11-06T05:26:11.839Z,74.40
2018-11-06T05:28:40.043Z,74.10
2018-11-06T05:31:08.225Z,73.90
2018-11-06T05:33:36.710Z,74.10
2018-11-06T05:36:05.144Z,74.10
2018-11-06T05:38:34.779Z,74.00
2018-11-06T05:41:05.245Z,73.90
2018-11-06T05:43:34.155Z,73.80
2018-11-06T05:46:02.579Z,73.70
2018-11-06T05:48:30.935Z,73.60
2018-11-06T05:50:59.303Z,73.60
2018-11-06T05:53:27.692Z,73.70
2018-11-06T05:55:56.139Z,73.50
2018-11-06T05:58:24.455Z,73.40
2018-11-06T06:00:52.634Z,73.60
2018-11-06T06:03:20.829Z,73.60
2018-11-06T06:05:49.183Z,73.40
2018-11-06T06:08:17.379Z,73.50
2018-11-06T06:10:45.567Z,73.60
2018-11-06T06:13:13.762Z,73.50
2018-11-06T06:15:42.014Z,73.40
2018-11-06T06:18:10.984Z,74.30
2018-11-06T06:20:39.170Z,73.50
2018-11-06T06:23:07.445Z,73.40
2018-11-06T06:25:35.659Z,73.20
2018-11-06T06:28:03.847Z,73.20
2018-11-06T06:30:32.055Z,73.20
2018-11-06T06:33:00.507Z,73.10
2018-11-06T06:35:28.695Z,73.20
2018-11-06T06:37:57.033Z,73.20
2018-11-06T06:40:25.543Z,73.50
2018-11-06T06:42:53.779Z,73.70
2018-11-06T06:45:21.991Z,73.70
2018-11-06T06:47:50.168Z,73.50
2018-11-06T06:50:19.257Z,73.40
2018-11-06T06:52:47.843Z,73.40
2018-11-06T06:55:16.870Z,73.50
2018-11-06T06:57:45.917Z,73.40
2018-11-06T07:00:15.800Z,73.40
2018-11-06T07:02:44.037Z,73.50
2018-11-06T07:05:13.515Z,73.60
2018-11-06T07:07:42.614Z,73.70
2018-11-06T07:10:12.614Z,73.90
2018-11-06T07:12:41.802Z,74.10
2018-11-06T07:15:13.387Z,75.00
2018-11-06T07:17:41.954Z,74.00
2018-11-06T07:20:12.479Z,73.90
2018-11-06T07:22:40.721Z,74.00
2018-11-06T07:25:10.050Z,74.60
2018-11-06T07:27:38.751Z,74.50
2018-11-06T07:30:11.027Z,74.80
2018-11-06T07:32:39.594Z,74.80
2018-11-06T07:35:08.634Z,74.70
2018-11-06T07:37:37.087Z,75.60
2018-11-06T07:40:06.208Z,74.90
2018-11-06T07:42:34.441Z,74.70
2018-11-06T07:45:02.659Z,74.70
2018-11-06T07:47:30.927Z,74.70
2018-11-06T07:49:59.370Z,74.80
2018-11-06T07:52:27.531Z,74.80
2018-11-06T07:54:55.717Z,76.10
2018-11-06T07:57:23.907Z,75.30
2018-11-06T07:59:52.163Z,75.30
2018-11-06T08:02:20.354Z,75.10
2018-11-06T08:04:48.566Z,75.30
2018-11-06T08:07:16.795Z,75.40
2018-11-06T08:09:45.000Z,75.30
2018-11-06T08:12:13.143Z,75.40
2018-11-06T08:14:41.394Z,75.40
2018-11-06T08:17:09.573Z,75.50
2018-11-06T08:19:37.765Z,75.70
2018-11-06T08:22:07.077Z,75.70
2018-11-06T08:24:35.519Z,75.70
2018-11-06T08:27:03.742Z,75.80
2018-11-06T08:29:31.946Z,75.80
2018-11-06T08:32:00.715Z,75.80
2018-11-06T08:34:28.408Z,76.00
2018-11-06T08:36:56.683Z,76.00
2018-11-06T08:39:24.854Z,76.10
2018-11-06T08:41:53.047Z,76.10
2018-11-06T08:44:21.242Z,76.00
2018-11-06T08:46:49.463Z,76.20
2018-11-06T08:49:17.684Z,76.30
2018-11-06T08:51:45.948Z,76.20
2018-11-06T08:54:14.540Z,76.20
2018-11-06T08:56:42.717Z,76.20
2018-11-06T08:59:10.972Z,76.00
2018-11-06T09:01:39.154Z,75.90
2018-11-06T09:04:07.462Z,76.00
2018-11-06T09:06:35.667Z,75.80
2018-11-06T09:09:04.707Z,75.80
2018-11-06T09:11:32.903Z,75.80
2018-11-06T09:14:01.327Z,75.90
2018-11-06T09:16:29.546Z,75.70
2018-11-06T09:18:57.762Z,75.60
2018-11-06T09:21:25.954Z,75.50
2018-11-06T09:23:54.140Z,75.60
2018-11-06T09:26:22.340Z,75.60
2018-11-06T09:28:50.511Z,75.10
2018-11-06T09:31:18.695Z,75.20
2018-11-06T09:33:46.906Z,75.90
2018-11-06T09:36:15.110Z,75.10
2018-11-06T09:38:43.282Z,74.70
2018-11-06T09:41:11.486Z,73.60
2018-11-06T09:43:39.663Z,73.20
2018-11-06T09:46:07.892Z,73.00
2018-11-06T09:48:36.052Z,72.40
2018-11-06T09:51:04.455Z,72.10
2018-11-06T09:53:32.655Z,71.70
2018-11-06T09:56:00.862Z,71.40
2018-11-06T09:58:29.066Z,71.20
2018-11-06T10:00:57.238Z,71.00
2018-11-06T10:03:25.438Z,70.80
2018-11-06T10:05:53.714Z,70.70
2018-11-06T10:08:21.945Z,70.50
2018-11-06T10:10:50.138Z,70.30
2018-11-06T10:13:18.351Z,69.70
2018-11-06T10:15:46.553Z,68.60
2018-11-06T10:18:14.833Z,68.20
2018-11-06T10:20:43.063Z,67.60
2018-11-06T10:23:11.287Z,67.10
2018-11-06T10:25:39.513Z,66.70
2018-11-06T10:28:07.775Z,66.20
2018-11-06T10:30:35.996Z,65.90
2018-11-06T10:33:04.300Z,65.80
2018-11-06T10:35:32.495Z,65.90
2018-11-06T10:38:00.742Z,65.90
2018-11-06T10:40:28.892Z,65.80
2018-11-06T10:42:57.126Z,65.40
2018-11-06T10:45:25.332Z,65.10
2018-11-06T10:47:53.579Z,65.10
2018-11-06T10:50:21.779Z,65.00
2018-11-06T10:52:49.971Z,65.00
2018-11-06T10:55:18.199Z,65.30
2018-11-06T10:57:47.018Z,65.10
2018-11-06T11:00:20.813Z,65.20
2018-11-06T11:02:54.578Z,65.30
2018-11-06T11:05:24.567Z,65.50
2018-11-06T11:07:52.814Z,65.80
2018-11-06T11:10:21.070Z,66.10
2018-11-06T11:12:49.279Z,66.10
2018-11-06T11:15:17.495Z,66.00
2018-11-06T11:17:45.770Z,65.90
2018-11-06T11:20:14.782Z,65.90
2018-11-06T11:22:43.182Z,65.80
2018-11-06T11:25:12.819Z,66.00
2018-11-06T11:27:41.503Z,66.10
2018-11-06T11:30:11.226Z,65.90
2018-11-06T11:32:40.197Z,65.70
2018-11-06T11:35:08.383Z,65.60
2018-11-06T11:37:36.876Z,65.80
2018-11-06T11:40:06.545Z,66.10
2018-11-06T11:42:34.922Z,65.40
2018-11-06T11:45:03.216Z,66.80
2018-11-06T11:47:31.403Z,65.80
2018-11-06T11:49:59.603Z,65.70
2018-11-06T11:52:27.783Z,65.50
2018-11-06T11:54:55.987Z,65.50
2018-11-06T11:57:24.204Z,65.50
2018-11-06T11:59:52.434Z,65.30
2018-11-06T12:02:20.665Z,65.20
2018-11-06T12:04:48.922Z,65.20
2018-11-06T12:07:17.192Z,65.10
2018-11-06T12:09:45.363Z,65.10
2018-11-06T12:12:13.673Z,64.90
2018-11-06T12:14:41.892Z,65.00
2018-11-06T12:17:10.293Z,64.90
2018-11-06T12:19:38.503Z,64.90
2018-11-06T12:22:06.818Z,64.80
2018-11-06T12:24:35.084Z,64.60
2018-11-06T12:27:03.198Z,64.50
2018-11-06T12:29:31.446Z,64.30
2018-11-06T12:31:59.595Z,64.20
2018-11-06T12:34:27.787Z,64.20
2018-11-06T12:36:56.004Z,64.30
2018-11-06T12:39:24.181Z,64.30
2018-11-06T12:41:52.358Z,64.40
2018-11-06T12:44:20.526Z,64.60
2018-11-06T12:46:48.754Z,64.70
2018-11-06T12:49:16.971Z,64.80
2018-11-06T12:51:45.158Z,64.80
2018-11-06T12:54:13.358Z,64.90
2018-11-06T12:56:41.535Z,65.00
2018-11-06T12:59:09.738Z,65.20
2018-11-06T13:01:37.944Z,65.20
2018-11-06T13:04:06.142Z,65.10
2018-11-06T13:06:34.334Z,65.00
2018-11-06T13:09:02.559Z,64.90
2018-11-06T13:11:30.766Z,64.90
2018-11-06T13:13:58.963Z,64.90
2018-11-06T13:16:27.156Z,65.00
2018-11-06T13:18:55.422Z,64.90
2018-11-06T13:21:23.588Z,64.90
2018-11-06T13:23:51.810Z,65.00
2018-11-06T13:26:20.137Z,65.00
2018-11-06T13:28:48.262Z,65.00
2018-11-06T13:31:16.504Z,65.10
2018-11-06T13:33:44.712Z,65.00
2018-11-06T13:36:13.111Z,65.00
2018-11-06T13:38:41.333Z,64.80
2018-11-06T13:41:09.542Z,64.80
2018-11-06T13:43:37.902Z,64.80
2018-11-06T13:46:05.975Z,64.80
2018-11-06T13:48:34.298Z,64.90
2018-11-06T13:51:02.487Z,65.00
2018-11-06T13:53:30.902Z,65.00
2018-11-06T13:55:59.096Z,64.90
2018-11-06T13:58:27.283Z,64.90
2018-11-06T14:00:55.456Z,64.80
2018-11-06T14:03:23.651Z,64.70
2018-11-06T14:05:51.854Z,64.70
2018-11-06T14:08:20.396Z,64.80
2018-11-06T14:10:48.614Z,64.80
2018-11-06T14:13:16.834Z,64.80
2018-11-06T14:15:45.092Z,64.80
2018-11-06T14:18:13.278Z,65.10
2018-11-06T14:20:41.479Z,65.10
2018-11-06T14:23:09.686Z,65.20
2018-11-06T14:25:38.110Z,65.20
2018-11-06T14:28:06.325Z,65.10
2018-11-06T14:30:34.763Z,65.10
2018-11-06T14:33:02.989Z,65.00
2018-11-06T14:35:31.229Z,64.90
2018-11-06T14:37:59.475Z,65.00
2018-11-06T14:40:27.668Z,64.90
2018-11-06T14:42:55.960Z,64.80
2018-11-06T14:45:24.086Z,64.80
2018-11-06T14:47:52.335Z,64.70
2018-11-06T14:50:20.441Z,64.80
2018-11-06T14:52:48.684Z,64.80
2018-11-06T14:55:17.170Z,65.10
2018-11-06T14:57:45.363Z,65.10
2018-11-06T15:00:18.603Z,65.20
2018-11-06T15:02:47.966Z,65.20
2018-11-06T15:05:16.742Z,65.20
2018-11-06T15:07:45.034Z,65.30
2018-11-06T15:10:13.303Z,65.40
2018-11-06T15:12:41.777Z,65.50
2018-11-06T15:15:11.116Z,65.40
2018-11-06T15:17:39.710Z,65.30
2018-11-06T15:20:09.922Z,65.20
2018-11-06T15:22:38.593Z,65.10
2018-11-06T15:25:07.186Z,65.30
2018-11-06T15:27:35.387Z,65.30
2018-11-06T15:30:03.594Z,65.30
2018-11-06T15:32:31.775Z,65.30
2018-11-06T15:35:00.092Z,65.30
2018-11-06T15:37:28.275Z,65.00
2018-11-06T15:39:56.467Z,65.40
2018-11-06T15:42:24.698Z,65.50
2018-11-06T15:44:53.151Z,65.50
2018-11-06T15:47:21.602Z,65.50
2018-11-06T15:49:49.788Z,65.40
2018-11-06T15:52:18.099Z,65.60
2018-11-06T15:54:46.349Z,65.50
2018-11-06T15:57:14.554Z,65.70
2018-11-06T15:59:42.797Z,66.50
2018-11-06T16:02:10.934Z,65.80
2018-11-06T16:04:39.154Z,65.70
2018-11-06T16:07:07.538Z,65.70
2018-11-06T16:09:35.757Z,65.80
2018-11-06T16:12:03.974Z,65.90
2018-11-06T16:14:32.234Z,66.10
2018-11-06T16:17:00.570Z,66.30
2018-11-06T16:19:28.787Z,66.20
2018-11-06T16:21:57.039Z,66.40
2018-11-06T16:24:25.262Z,66.50
2018-11-06T16:26:53.494Z,66.60
2018-11-06T16:29:21.703Z,66.70
2018-11-06T16:31:50.979Z,66.70
2018-11-06T16:34:19.228Z,66.80
2018-11-06T16:36:47.450Z,66.80
2018-11-06T16:39:15.747Z,66.80
2018-11-06T16:41:43.992Z,66.90
2018-11-06T16:44:12.252Z,67.00
2018-11-06T16:46:40.552Z,67.00
2018-11-06T16:49:08.766Z,67.00
2018-11-06T16:51:37.088Z,67.10
2018-11-06T16:54:05.706Z,67.00
2018-11-06T16:56:33.933Z,66.90
2018-11-06T16:59:02.140Z,67.30
2018-11-06T17:01:30.420Z,66.90
2018-11-06T17:03:58.704Z,67.00
2018-11-06T17:06:32.398Z,67.00
2018-11-06T17:09:00.559Z,67.00
2018-11-06T17:11:28.819Z,67.00
2018-11-06T17:13:56.994Z,67.00
2018-11-06T17:16:25.322Z,67.00
2018-11-06T17:18:53.511Z,66.90
2018-11-06T17:21:21.714Z,67.60
2018-11-06T17:23:49.917Z,66.90
2018-11-06T17:26:18.102Z,66.80
2018-11-06T17:28:46.303Z,66.70
2018-11-06T17:31:14.519Z,66.90
2018-11-06T17:33:42.819Z,66.50
2018-11-06T17:36:11.026Z,66.50
2018-11-06T17:38:39.331Z,66.50
2018-11-06T17:41:07.718Z,66.50
2018-11-06T17:43:36.040Z,66.50
2018-11-06T17:46:04.692Z,66.50
2018-11-06T17:48:33.075Z,66.40
2018-11-06T17:51:01.343Z,66.40
2018-11-06T17:53:29.566Z,66.30
2018-11-06T17:55:57.778Z,66.40
2018-11-06T17:58:26.462Z,66.40
2018-11-06T18:00:54.644Z,66.50
2018-11-06T18:03:22.860Z,66.60
2018-11-06T18:05:51.102Z,66.80
2018-11-06T18:08:19.311Z,66.80
2018-11-06T18:10:47.545Z,66.90
2018-11-06T18:13:15.783Z,66.20
2018-11-06T18:15:44.019Z,66.80
2018-11-06T18:18:12.261Z,66.90
2018-11-06T18:20:40.504Z,67.10
2018-11-06T18:23:08.787Z,67.20
2018-11-06T18:25:37.471Z,67.20
2018-11-06T18:28:06.211Z,67.20
2018-11-06T18:30:34.440Z,67.20
2018-11-06T18:33:02.650Z,67.20
2018-11-06T18:35:30.886Z,67.20
2018-11-06T18:37:59.246Z,67.20
2018-11-06T18:40:27.487Z,67.20
2018-11-06T18:42:55.679Z,67.20
2018-11-06T18:45:23.937Z,67.10
2018-11-06T18:47:52.202Z,67.10
2018-11-06T18:50:20.568Z,67.10
2018-11-06T18:52:49.969Z,67.20
2018-11-06T18:55:18.259Z,67.10
2018-11-06T18:57:46.466Z,67.10
2018-11-06T19:00:16.092Z,67.10
2018-11-06T19:02:46.019Z,67.30
2018-11-06T19:05:14.874Z,67.20
2018-11-06T19:07:43.066Z,67.20
2018-11-06T19:10:12.572Z,67.10
2018-11-06T19:12:41.123Z,67.20
2018-11-06T19:15:12.354Z,67.50
2018-11-06T19:17:41.201Z,67.40
2018-11-06T19:20:10.160Z,67.60
2018-11-06T19:22:38.463Z,67.70
2018-11-06T19:25:07.490Z,67.80
2018-11-06T19:27:36.034Z,67.70
2018-11-06T19:30:05.731Z,67.50
2018-11-06T19:32:33.994Z,67.80
2018-11-06T19:35:02.302Z,67.70
2018-11-06T19:37:30.514Z,67.60
2018-11-06T19:39:59.006Z,67.60
2018-11-06T19:42:27.238Z,67.70
2018-11-06T19:44:55.598Z,67.50
2018-11-06T19:47:23.960Z,68.30
2018-11-06T19:49:52.175Z,67.40
2018-11-06T19:52:20.365Z,67.40
2018-11-06T19:54:48.587Z,67.40
2018-11-06T19:57:16.775Z,67.60
2018-11-06T19:59:45.110Z,67.60
2018-11-06T20:02:13.361Z,67.70
2018-11-06T20:04:41.713Z,67.80
2018-11-06T20:07:09.798Z,67.90
2018-11-06T20:09:38.066Z,68.00
2018-11-06T20:12:06.228Z,68.20
2018-11-06T20:14:34.523Z,68.40
2018-11-06T20:17:02.695Z,68.50
2018-11-06T20:19:30.874Z,68.60
2018-11-06T20:21:59.092Z,68.70
2018-11-06T20:24:27.266Z,68.80
2018-11-06T20:26:55.486Z,69.10
2018-11-06T20:29:23.734Z,69.00
2018-11-06T20:31:51.934Z,69.10
2018-11-06T20:34:20.277Z,69.20
2018-11-06T20:36:48.512Z,69.20
2018-11-06T20:39:16.707Z,69.30
2018-11-06T20:41:44.938Z,69.40
2018-11-06T20:44:13.163Z,69.60
2018-11-06T20:46:41.379Z,69.60
2018-11-06T20:49:09.568Z,69.70
2018-11-06T20:51:37.806Z,69.80
2018-11-06T20:54:06.020Z,69.70
2018-11-06T20:56:34.230Z,69.80
2018-11-06T20:59:02.453Z,69.70
2018-11-06T21:01:30.689Z,69.70
2018-11-06T21:03:58.896Z,69.80
2018-11-06T21:06:27.091Z,69.80
2018-11-06T21:08:55.310Z,69.90
2018-11-06T21:11:23.504Z,70.00
2018-11-06T21:13:51.841Z,69.90
2018-11-06T21:16:19.931Z,70.00
2018-11-06T21:18:48.143Z,70.00
2018-11-06T21:21:16.361Z,69.90
2018-11-06T21:23:44.594Z,70.00
2018-11-06T21:26:12.973Z,70.00
2018-11-06T21:28:41.008Z,70.80
2018-11-06T21:31:09.257Z,71.00
2018-11-06T21:33:37.434Z,70.10
2018-11-06T21:36:05.667Z,70.30
2018-11-06T21:38:33.846Z,70.20
2018-11-06T21:41:02.044Z,70.50
2018-11-06T21:43:30.212Z,71.30
2018-11-06T21:45:58.452Z,70.20
2018-11-06T21:48:26.667Z,70.40
2018-11-06T21:50:54.863Z,70.30
2018-11-06T21:53:23.078Z,70.40
2018-11-06T21:55:51.274Z,70.40
2018-11-06T21:58:19.455Z,70.50
2018-11-06T22:00:47.699Z,70.60
2018-11-06T22:03:15.848Z,70.60
2018-11-06T22:05:44.039Z,70.60
2018-11-06T22:08:12.235Z,70.70
2018-11-06T22:10:40.494Z,70.60
2018-11-06T22:13:08.771Z,70.80
2018-11-06T22:15:36.906Z,70.90
2018-11-06T22:18:05.115Z,71.00
2018-11-06T22:20:33.322Z,71.00
2018-11-06T22:23:01.495Z,71.00
2018-11-06T22:25:29.700Z,71.10
2018-11-06T22:27:57.915Z,71.00
2018-11-06T22:30:26.127Z,71.00
2018-11-06T22:32:54.326Z,71.00
2018-11-06T22:35:22.519Z,71.20
2018-11-06T22:37:50.715Z,71.40
2018-11-06T22:40:18.950Z,71.50
2018-11-06T22:42:47.354Z,71.40
2018-11-06T22:45:16.686Z,71.50
2018-11-06T22:47:44.911Z,71.70
2018-11-06T22:50:15.400Z,71.70
2018-11-06T22:52:44.401Z,71.90
2018-11-06T22:55:12.602Z,71.90
2018-11-06T22:57:40.792Z,71.70
2018-11-06T23:00:11.265Z,71.80
2018-11-06T23:02:39.511Z,71.80
2018-11-06T23:05:07.695Z,71.80
2018-11-06T23:07:41.356Z,71.80
2018-11-06T23:10:09.556Z,72.00
2018-11-06T23:12:37.758Z,71.80
2018-11-06T23:15:05.946Z,71.90
2018-11-06T23:17:34.139Z,71.80
2018-11-06T23:20:02.349Z,71.80
2018-11-06T23:22:30.511Z,71.90
2018-11-06T23:24:58.754Z,71.60
2018-11-06T23:27:27.078Z,71.50
2018-11-06T23:29:55.276Z,71.30
2018-11-06T23:32:23.472Z,71.20
2018-11-06T23:34:51.655Z,71.20
2018-11-06T23:37:19.827Z,71.00
2018-11-06T23:39:48.035Z,71.00
2018-11-06T23:42:16.229Z,70.80
2018-11-06T23:44:44.479Z,70.80
2018-11-06T23:47:12.661Z,70.60
2018-11-06T23:49:40.851Z,70.60
2018-11-06T23:52:09.022Z,70.60
2018-11-06T23:54:37.243Z,70.60
2018-11-06T23:57:05.480Z,70.50
2018-11-06T23:59:33.662Z,70.70
